Terminal Aerodrome Forecast
Issued by NWS Charleston, WV

Current Version | Previous Version | Graphics & Text | Print | Product List | Glossary On
Versions: 1 2 3 4 5 6 7 8 9 10 11 12 13 14 15 16 17 18 19 20 21
000
FTUS41 KRLX 081220 RRA
TAFPKB
TAF
KPKB 081220Z 0812/0912 27006KT P6SM BKN080
     FM081500 27008G14KT P6SM BKN035
     FM081700 27009KT P6SM SCT035
     FM082100 27010G20KT P6SM BKN040
     FM090100 28009G17KT P6SM BKN025
     FM090600 27008KT P6SM OVC025=

USA.gov is the U.S. government's official web portal to all federal, state and local government web resources and services.